Time;durP1;ratioP1;P1;durP2;ratioP2;P2;SDS_P1;SDS_P2;PMS_P1;PMS_P2;Temp;Humidity;BMP_temperature;BMP_pressure;BME280_temperature;BME280_humidity;BME280_pressure;Samples;Min_cycle;Max_cycle;Signal;HPM_P1;HPM_P2
2022/07/04 04:22:33;;;;;;;5.60;4.30;;;;;;;16.88;87.85;100571.66;5068827;28;20190;-67
2022/07/04 04:24:58;;;;;;;7.18;3.28;;;;;;;16.89;87.71;100576.84;5068993;28;20041;-68
2022/07/04 04:27:23;;;;;;;6.05;2.88;;;;;;;16.91;89.13;100582.00;5068760;28;20079;-68
2022/07/04 04:29:49;;;;;;;5.55;3.55;;;;;;;16.93;88.90;100588.81;5068569;28;20458;-68
2022/07/04 04:32:14;;;;;;;5.50;3.17;;;;;;;16.94;87.74;100592.34;5068782;28;20520;-68
2022/07/04 04:34:43;;;;;;;6.45;4.43;;;;;;;16.98;87.79;100588.22;5068766;28;20124;-68
2022/07/04 04:37:08;;;;;;;5.13;3.15;;;;;;;16.99;88.95;100596.06;5068685;28;20033;-68
2022/07/04 04:39:33;;;;;;;4.22;2.90;;;;;;;17.04;88.13;100604.38;5068321;28;20161;-68
2022/07/04 04:41:59;;;;;;;4.82;2.80;;;;;;;17.07;87.47;100611.19;5068623;28;20394;-68
2022/07/04 04:44:24;;;;;;;5.00;3.53;;;;;;;17.07;89.19;100608.50;5067250;28;20528;-68
2022/07/04 04:46:50;;;;;;;5.30;3.75;;;;;;;17.16;87.85;100601.88;5068307;28;20447;-68
2022/07/04 04:49:17;;;;;;;6.97;2.95;;;;;;;17.20;87.15;100610.34;5068196;28;20037;-68
2022/07/04 04:51:42;;;;;;;9.88;3.40;;;;;;;17.30;86.56;100613.47;5068396;28;20029;-68
2022/07/04 04:54:08;;;;;;;8.98;3.50;;;;;;;17.40;87.15;100616.56;5068159;28;20044;-68
2022/07/04 04:56:33;;;;;;;5.63;3.20;;;;;;;17.51;85.00;100624.00;5068329;28;20052;-68
2022/07/04 04:58:59;;;;;;;6.63;3.00;;;;;;;17.60;85.61;100614.69;5067968;28;20126;-68
2022/07/04 05:01:24;;;;;;;8.63;4.07;;;;;;;17.70;85.11;100616.09;5068040;28;20041;-68
2022/07/04 05:03:49;;;;;;;6.20;3.20;;;;;;;17.79;81.52;100620.25;5068084;28;20041;-68
2022/07/04 05:06:15;;;;;;;4.82;2.70;;;;;;;17.89;76.28;100621.47;5067982;28;20044;-68
2022/07/04 05:08:40;;;;;;;3.15;2.67;;;;;;;17.98;75.11;100622.06;5067683;28;20174;-68
2022/07/04 05:11:06;;;;;;;4.47;2.80;;;;;;;18.05;74.47;100620.16;5068068;28;20048;-68
2022/07/04 05:13:32;;;;;;;5.70;3.13;;;;;;;18.18;71.91;100630.88;5068025;28;20041;-68
2022/07/04 05:15:57;;;;;;;10.30;3.03;;;;;;;18.30;72.71;100622.13;5067856;28;20036;-52
2022/07/04 05:18:23;;;;;;;6.30;3.53;;;;;;;18.42;72.84;100617.72;5067586;28;20041;-52
2022/07/04 05:20:48;;;;;;;3.85;2.95;;;;;;;18.61;71.29;100629.44;5074152;28;20033;-56
2022/07/04 05:23:14;;;;;;;3.28;2.45;;;;;;;18.77;69.52;100620.03;5088072;28;20036;-51
2022/07/04 05:25:39;;;;;;;3.58;2.30;;;;;;;18.82;69.64;100622.91;5088025;28;20040;-54
2022/07/04 05:28:05;;;;;;;5.88;2.60;;;;;;;18.89;69.88;100619.09;5069739;28;20040;-52
2022/07/04 05:30:31;;;;;;;5.15;2.67;;;;;;;18.87;67.82;100629.31;5087800;28;20054;-52
2022/07/04 05:32:58;;;;;;;3.90;2.40;;;;;;;18.92;68.44;100631.34;5079973;28;20548;-51
2022/07/04 05:35:24;;;;;;;4.67;2.30;;;;;;;18.91;66.92;100624.31;5074363;28;20036;-52
2022/07/04 05:37:49;;;;;;;5.47;3.20;;;;;;;19.02;67.04;100620.88;5074233;28;20041;-50
2022/07/04 05:40:15;;;;;;;4.35;2.80;;;;;;;19.09;67.17;100624.34;5073975;28;20044;-61
2022/07/04 05:42:40;;;;;;;4.78;3.47;;;;;;;19.13;66.23;100620.19;5074195;28;20028;-61
2022/07/04 05:45:07;;;;;;;4.00;2.55;;;;;;;19.16;65.60;100619.72;5074198;28;20075;-61
2022/07/04 05:47:32;;;;;;;3.88;2.60;;;;;;;19.07;65.51;100621.06;5074132;28;20440;-60
2022/07/04 05:50:00;;;;;;;6.93;2.50;;;;;;;19.17;65.03;100621.41;5073756;28;20048;-56
2022/07/04 05:52:25;;;;;;;3.05;2.42;;;;;;;19.24;65.68;100627.56;5074055;28;20055;-59
2022/07/04 05:54:51;;;;;;;7.60;2.42;;;;;;;19.23;65.22;100619.66;5073994;28;20032;-57
2022/07/04 05:57:16;;;;;;;5.05;2.75;;;;;;;19.20;65.98;100614.72;5056028;28;20757;-58
2022/07/04 05:59:42;;;;;;;3.80;2.40;;;;;;;19.32;66.01;100620.25;5073537;28;20040;-61
2022/07/04 06:02:08;;;;;;;7.05;2.72;;;;;;;19.43;67.03;100622.19;5073827;28;20127;-58
2022/07/04 06:04:33;;;;;;;9.65;2.72;;;;;;;19.49;64.53;100618.59;5073754;28;20111;-59
2022/07/04 06:06:58;;;;;;;6.07;3.13;;;;;;;19.49;65.03;100614.03;5073632;28;20067;-58
2022/07/04 06:09:24;;;;;;;3.78;2.83;;;;;;;19.51;65.94;100619.22;5073430;28;20461;-59
2022/07/04 06:11:49;;;;;;;7.07;2.85;;;;;;;19.56;64.47;100618.53;5073564;28;20029;-61
2022/07/04 06:14:15;;;;;;;5.70;2.47;;;;;;;19.52;65.07;100613.59;5073686;28;20504;-60
2022/07/04 06:16:40;;;;;;;5.65;3.00;;;;;;;19.56;65.40;100619.41;5073549;28;20162;-60
2022/07/04 06:19:06;;;;;;;4.53;2.60;;;;;;;19.63;65.10;100624.75;5073273;28;20489;-61
2022/07/04 06:21:31;;;;;;;4.13;2.55;;;;;;;19.56;63.58;100619.41;5073292;28;20102;-61
2022/07/04 06:23:58;;;;;;;4.55;2.40;;;;;;;19.60;64.86;100612.50;5073567;28;20066;-61
2022/07/04 06:26:23;;;;;;;4.35;2.50;;;;;;;19.62;64.12;100606.88;5073281;28;20473;-60
2022/07/04 06:28:49;;;;;;;4.50;2.50;;;;;;;19.52;63.63;100607.38;5072972;28;20053;-61
2022/07/04 06:31:15;;;;;;;4.80;2.70;;;;;;;19.52;64.26;100610.06;5073332;28;20045;-61
2022/07/04 06:36:24;;;;;;;3.42;2.53;;;;;;;19.55;63.99;100606.91;5073243;28;20465;-61
2022/07/04 06:38:50;;;;;;;2.85;2.47;;;;;;;19.64;65.38;100607.50;5072899;28;20032;-60
2022/07/04 06:41:15;;;;;;;4.47;2.80;;;;;;;19.65;63.80;100598.34;5072815;28;20447;-61
2022/07/04 06:43:41;;;;;;;3.80;2.60;;;;;;;19.66;63.98;100600.81;5072375;28;20044;-59
2022/07/04 06:46:06;;;;;;;6.50;2.60;;;;;;;19.69;64.44;100596.81;5072304;28;20040;-61
2022/07/04 06:48:32;;;;;;;3.95;2.50;;;;;;;19.73;62.73;100603.44;5072628;28;20136;-61
2022/07/04 06:50:57;;;;;;;5.25;2.30;;;;;;;19.90;63.11;100603.66;5054826;28;20036;-58
2022/07/04 06:53:23;;;;;;;2.70;2.22;;;;;;;19.98;62.98;100596.06;5072688;28;20040;-58
2022/07/04 06:55:48;;;;;;;4.00;2.40;;;;;;;20.02;62.89;100599.97;5072479;28;20044;-58
2022/07/04 06:58:14;;;;;;;4.03;2.72;;;;;;;20.14;62.48;100597.31;5072474;28;20072;-57
2022/07/04 07:00:41;;;;;;;4.85;2.33;;;;;;;20.21;62.95;100598.09;5072342;28;20036;-58
2022/07/04 07:03:06;;;;;;;3.55;2.40;;;;;;;20.10;61.52;100604.25;5072578;28;20097;-59
2022/07/04 07:05:34;;;;;;;3.53;2.30;;;;;;;20.24;62.31;100591.38;5054471;28;20052;-59
2022/07/04 07:07:59;;;;;;;5.20;2.50;;;;;;;20.28;61.92;100601.53;5072463;28;20039;-59
2022/07/04 07:10:25;;;;;;;4.97;2.80;;;;;;;20.36;61.58;100602.25;5072114;28;20037;-58
2022/07/04 07:12:50;;;;;;;3.25;2.58;;;;;;;20.30;61.56;100593.19;5072310;28;20044;-59
2022/07/04 07:15:16;;;;;;;7.53;3.00;;;;;;;20.18;61.81;100590.41;5072124;28;20089;-60
2022/07/04 07:17:42;;;;;;;3.75;2.38;;;;;;;20.40;63.21;100600.72;5054558;28;20520;-58
2022/07/04 07:20:08;;;;;;;3.83;2.60;;;;;;;20.38;62.69;100595.56;5071758;28;20119;-59
2022/07/04 07:22:33;;;;;;;3.03;2.40;;;;;;;20.37;61.89;100596.63;5071962;28;20098;-59
2022/07/04 07:24:59;;;;;;;5.68;2.60;;;;;;;20.39;61.26;100591.78;5071922;28;20041;-59
2022/07/04 07:27:24;;;;;;;5.45;2.65;;;;;;;20.36;61.92;100588.75;5072005;28;20108;-60
2022/07/04 07:29:49;;;;;;;4.22;2.55;;;;;;;20.58;62.85;100590.72;5071831;28;20042;-59
2022/07/04 07:32:17;;;;;;;4.22;2.40;;;;;;;20.70;63.21;100589.94;5072020;28;20033;-59
2022/07/04 07:34:42;;;;;;;4.72;2.70;;;;;;;20.74;61.94;100593.84;5072094;28;20439;-59
2022/07/04 07:37:08;;;;;;;7.18;2.47;;;;;;;20.82;61.79;100597.03;5071859;28;20044;-57
2022/07/04 07:39:33;;;;;;;4.80;2.53;;;;;;;20.96;60.99;100596.81;5071488;28;20033;-60
2022/07/04 07:41:59;;;;;;;3.58;2.55;;;;;;;21.06;60.24;100583.50;5071876;28;20219;-59
2022/07/04 07:44:24;;;;;;;4.45;2.80;;;;;;;21.19;60.06;100587.88;5071849;28;20726;-57
2022/07/04 07:46:50;;;;;;;4.25;2.58;;;;;;;21.10;61.05;100584.69;5071745;28;20102;-59
2022/07/04 07:49:16;;;;;;;3.70;2.85;;;;;;;21.16;60.53;100586.47;5071452;28;20456;-60
2022/07/04 07:51:41;;;;;;;4.18;2.47;;;;;;;21.30;61.50;100587.09;5071659;28;20512;-59
2022/07/04 07:54:07;;;;;;;3.72;2.75;;;;;;;21.54;60.51;100591.47;5071612;28;20032;-58
2022/07/04 07:56:32;;;;;;;6.43;2.75;;;;;;;21.46;57.92;100597.25;5071350;28;20044;-59
2022/07/04 07:58:58;;;;;;;4.30;2.83;;;;;;;21.56;57.52;100593.91;5071213;28;20040;-60
2022/07/04 08:01:23;;;;;;;3.85;2.60;;;;;;;21.70;57.93;100589.06;5071528;28;20115;-57
2022/07/04 08:06:33;;;;;;;4.75;3.20;;;;;;;21.73;58.63;100594.03;5071347;28;20155;-57
2022/07/04 08:08:59;;;;;;;3.75;2.75;;;;;;;21.78;57.44;100583.28;5071263;28;20048;-59
2022/07/04 08:11:24;;;;;;;5.25;2.38;;;;;;;21.93;57.99;100594.47;5071714;28;20051;-59
2022/07/04 08:13:50;;;;;;;3.20;2.40;;;;;;;22.07;58.78;100584.16;5071543;28;20071;-58
2022/07/04 08:16:16;;;;;;;3.05;2.50;;;;;;;22.20;58.50;100581.19;5071529;28;20121;-59
2022/07/04 08:18:41;;;;;;;3.22;2.30;;;;;;;22.38;58.11;100572.88;5071129;28;20101;-55
2022/07/04 08:21:07;;;;;;;3.40;2.55;;;;;;;22.19;55.86;100568.69;5071152;28;20496;-58
2022/07/04 08:23:33;;;;;;;6.18;2.60;;;;;;;22.38;57.04;100564.72;5071381;28;20414;-59
2022/07/04 08:26:00;;;;;;;9.07;2.92;;;;;;;22.51;57.23;100569.03;5071301;28;20478;-57
2022/07/04 08:28:27;;;;;;;3.03;2.42;;;;;;;22.62;54.98;100556.44;5071100;28;20043;-60
2022/07/04 08:30:53;;;;;;;3.93;2.57;;;;;;;22.83;55.53;100557.63;5071421;28;20032;-59
2022/07/04 08:33:19;;;;;;;5.15;2.55;;;;;;;22.71;54.02;100555.81;5071358;28;20294;-60
2022/07/04 08:35:44;;;;;;;5.03;2.85;;;;;;;23.06;55.11;100557.47;5071205;28;20045;-59
2022/07/04 08:38:10;;;;;;;6.20;2.55;;;;;;;23.05;54.27;100555.00;5071173;28;20510;-58
2022/07/04 08:40:35;;;;;;;2.92;2.70;;;;;;;23.19;52.92;100554.41;5071054;28;20045;-55
2022/07/04 08:43:03;;;;;;;5.70;2.38;;;;;;;23.31;52.32;100548.88;5071178;28;20036;-59
2022/07/04 08:45:32;;;;;;;3.88;2.55;;;;;;;23.36;53.42;100548.97;5071519;28;20045;-57
2022/07/04 08:48:06;;;;;;;4.40;2.40;;;;;;;23.55;52.61;100544.88;5053525;28;20086;-57
2022/07/04 08:50:34;;;;;;;3.92;2.30;;;;;;;23.80;51.83;100540.88;5070925;28;20032;-59
2022/07/04 08:53:03;;;;;;;7.47;2.47;;;;;;;23.74;52.35;100533.72;5071195;28;20036;-60
2022/07/04 08:58:26;;;;;;;6.00;2.50;;;;;;;23.65;51.04;100535.22;5070968;28;20032;-60
2022/07/04 09:00:53;;;;;;;3.97;2.15;;;;;;;23.72;51.67;100531.25;5071217;28;20032;-60
2022/07/04 09:03:19;;;;;;;4.47;2.25;;;;;;;23.64;50.43;100528.16;5071117;28;20055;-60
2022/07/04 09:05:45;;;;;;;4.38;2.65;;;;;;;23.69;56.10;100536.38;5070940;28;20051;-59
2022/07/04 09:08:11;;;;;;;3.00;2.00;;;;;;;23.66;52.46;100534.16;5072747;28;20060;-60
2022/07/04 09:10:37;;;;;;;2.22;2.03;;;;;;;23.78;51.71;100535.66;5074607;28;20430;-60
2022/07/04 09:13:05;;;;;;;6.18;2.15;;;;;;;24.00;52.91;100529.41;5074717;28;20041;-60
2022/07/04 09:15:31;;;;;;;3.67;2.10;;;;;;;23.97;48.73;100532.63;5074549;28;20032;-60
2022/07/04 09:17:57;;;;;;;2.42;1.95;;;;;;;24.17;52.27;100529.31;5074394;28;20212;-60
2022/07/04 09:20:23;;;;;;;4.45;2.00;;;;;;;24.32;50.30;100532.19;5074276;28;20047;-61
2022/07/04 09:22:51;;;;;;;2.10;1.90;;;;;;;24.39;50.41;100538.28;5074510;28;20041;-60
2022/07/04 09:25:17;;;;;;;4.55;1.90;;;;;;;24.54;49.97;100541.16;5074354;28;20079;-59
2022/07/04 09:27:56;;;;;;;3.05;2.03;;;;;;;24.54;48.58;100546.59;5074303;28;20091;-60
2022/07/04 09:30:26;;;;;;;2.55;1.80;;;;;;;24.59;48.98;100543.91;5074404;28;20458;-60
2022/07/04 09:32:59;;;;;;;5.05;2.30;;;;;;;24.66;46.75;100542.88;5074424;28;20381;-60
2022/07/04 09:35:28;;;;;;;3.10;1.92;;;;;;;24.89;51.04;100537.06;5074274;28;20136;-61
2022/07/04 09:37:55;;;;;;;3.20;1.92;;;;;;;24.77;48.50;100542.69;5074231;28;20473;-60
2022/07/04 09:40:28;;;;;;;3.92;2.20;;;;;;;24.99;46.64;100547.25;5073792;28;20127;-59
2022/07/04 09:42:56;;;;;;;2.42;2.00;;;;;;;25.23;47.15;100550.41;5074141;28;20485;-57
2022/07/04 09:45:24;;;;;;;3.65;1.90;;;;;;;25.35;47.94;100553.75;5074036;28;20123;-60
2022/07/04 09:47:53;;;;;;;4.43;1.80;;;;;;;25.67;46.24;100551.75;5056092;28;20040;-60
2022/07/04 09:50:20;;;;;;;4.30;2.22;;;;;;;25.97;45.00;100550.28;5074269;28;20662;-61
2022/07/04 09:52:53;;;;;;;3.03;1.88;;;;;;;26.23;46.00;100541.06;5074169;28;20039;-61
2022/07/04 09:55:27;;;;;;;3.58;1.70;;;;;;;26.48;45.99;100545.78;5073831;28;20123;-61
2022/07/04 09:57:54;;;;;;;8.65;2.10;;;;;;;26.66;42.98;100549.88;5073933;28;20036;-61
2022/07/04 10:00:44;;;;;;;4.10;2.08;;;;;;;26.84;43.62;100542.25;5073548;28;20044;-61
2022/07/04 10:03:25;;;;;;;3.53;1.83;;;;;;;26.50;43.10;100553.69;5073718;28;20478;-61
2022/07/04 10:06:11;;;;;;;4.05;1.50;;;;;;;26.74;43.31;100545.81;5073702;28;20032;-61
2022/07/04 10:08:38;;;;;;;3.65;1.70;;;;;;;26.94;43.55;100550.44;5073487;28;20040;-61
2022/07/04 10:11:05;;;;;;;5.32;1.80;;;;;;;26.93;42.05;100557.81;5073729;28;20035;-61
2022/07/04 10:13:31;;;;;;;4.97;1.98;;;;;;;27.00;40.84;100563.84;5073629;28;20047;-61
2022/07/04 10:15:57;;;;;;;3.53;2.00;;;;;;;27.09;41.40;100564.13;5073490;28;20032;-61
2022/07/04 10:18:24;;;;;;;6.15;2.38;;;;;;;27.27;41.38;100558.09;5073038;28;20033;-60
2022/07/04 10:20:51;;;;;;;2.10;1.70;;;;;;;27.48;40.81;100563.50;5055376;28;20112;-60
2022/07/04 10:23:17;;;;;;;2.90;1.88;;;;;;;27.59;40.66;100557.72;5073463;28;20107;-60
2022/07/04 10:25:46;;;;;;;3.38;1.60;;;;;;;28.03;39.80;100561.66;5073453;28;20044;-61
2022/07/04 10:28:11;;;;;;;3.58;1.60;;;;;;;28.19;40.91;100555.00;5073071;28;20090;-61
2022/07/04 10:30:39;;;;;;;3.20;1.50;;;;;;;28.18;40.42;100550.66;5073144;28;20477;-62
2022/07/04 10:33:07;;;;;;;2.65;1.60;;;;;;;28.05;39.21;100554.00;5073199;28;20060;-61
2022/07/04 10:35:50;;;;;;;3.47;1.70;;;;;;;27.75;42.47;100544.81;5074711;28;20107;-62
2022/07/04 10:38:34;;;;;;;3.92;1.90;;;;;;;27.82;40.40;100542.59;5074509;28;20045;-62
2022/07/04 10:41:06;;;;;;;5.03;1.95;;;;;;;28.05;39.78;100541.13;5073008;28;20036;-62
2022/07/04 10:43:37;;;;;;;2.72;1.73;;;;;;;28.28;39.90;100542.34;5073151;28;20108;-63
2022/07/04 10:46:15;;;;;;;5.78;2.00;;;;;;;28.35;39.81;100544.81;5073144;28;20032;-62
2022/07/04 10:49:02;;;;;;;4.68;1.80;;;;;;;28.64;39.05;100542.97;5072635;28;20038;-62
2022/07/04 10:52:08;;;;;;;3.28;1.60;;;;;;;28.74;38.64;100531.06;5072818;28;20422;-62
2022/07/04 10:54:35;;;;;;;;;;;;;;;29.47;38.34;100543.81;5073212;28;20049;-62
2022/07/04 10:57:12;;;;;;;3.20;1.67;;;;;;;29.04;37.48;100531.94;5072629;28;19916;-61
2022/07/04 10:59:39;;;;;;;3.17;1.40;;;;;;;28.95;40.30;100531.72;5072447;28;20040;-62
2022/07/04 11:02:07;;;;;;;4.82;1.63;;;;;;;28.92;36.91;100524.91;5072552;28;20093;-62
2022/07/04 11:05:02;;;;;;;2.30;1.45;;;;;;;28.52;37.07;100523.31;5072676;28;20132;-62
2022/07/04 11:07:37;;;;;;;2.13;1.38;;;;;;;29.09;39.01;100526.41;5072502;28;20024;-62
2022/07/04 11:12:55;;;;;;;1.50;1.38;;;;;;;29.52;37.77;100507.31;5072535;28;20024;-62
2022/07/04 11:15:32;;;;;;;2.08;1.38;;;;;;;29.98;36.37;100516.56;5072261;28;20080;-63
2022/07/04 11:18:02;;;;;;;3.78;1.50;;;;;;;29.97;40.42;100523.19;5072276;28;20040;-63
2022/07/04 11:20:32;;;;;;;2.90;1.83;;;;;;;30.08;37.60;100518.38;5071810;28;20032;-62
2022/07/04 11:23:08;;;;;;;3.28;1.83;;;;;;;30.08;35.12;100510.13;5072284;28;20044;-62
2022/07/04 11:25:34;;;;;;;3.30;1.48;;;;;;;30.34;35.56;100499.59;5072167;28;20041;-62
2022/07/04 11:28:30;;;;;;;3.45;1.30;;;;;;;31.07;34.83;100501.66;5072239;28;20028;-62
2022/07/04 11:30:57;;;;;;;2.92;1.50;;;;;;;31.07;36.17;100498.91;5071711;28;20048;-62
2022/07/04 11:33:29;;;;;;;2.50;1.42;;;;;;;31.16;35.25;100500.94;5072377;28;20522;-63
2022/07/04 11:36:10;;;;;;;5.00;1.67;;;;;;;31.04;35.28;100491.28;5072062;28;20581;-63
2022/07/04 11:38:47;;;;;;;3.08;1.60;;;;;;;31.05;34.79;100492.91;5071745;28;20036;-62
2022/07/04 11:46:40;;;;;;;1.45;1.20;;;;;;;31.34;34.97;100483.56;5071787;28;20051;-62
2022/07/04 11:49:10;;;;;;;4.03;1.48;;;;;;;31.00;34.54;100484.75;5071678;28;20020;-63
2022/07/04 11:51:35;;;;;;;6.00;1.45;;;;;;;31.22;33.95;100483.22;5071827;28;20041;-63
2022/07/04 11:54:04;;;;;;;1.23;1.10;;;;;;;31.37;32.84;100482.97;5071843;28;20120;-63
2022/07/04 11:56:30;;;;;;;2.90;1.30;;;;;;;31.67;34.31;100486.19;5071860;28;20482;-62
2022/07/04 11:58:55;;;;;;;1.85;1.00;;;;;;;31.58;32.76;100483.34;5071511;28;20048;-63
2022/07/04 12:01:28;;;;;;;2.10;1.27;;;;;;;31.76;34.40;100481.59;5071727;28;20090;-63
2022/07/04 12:03:53;;;;;;;2.83;1.20;;;;;;;31.68;33.29;100480.38;5071782;28;20039;-62
2022/07/04 12:06:19;;;;;;;4.00;1.27;;;;;;;31.65;34.01;100482.94;5071552;28;20036;-62
2022/07/04 12:08:45;;;;;;;3.47;1.20;;;;;;;31.95;34.42;100476.78;5071354;28;20469;-63
2022/07/04 12:11:10;;;;;;;2.97;1.03;;;;;;;31.50;33.87;100473.88;5071558;28;20079;-63
2022/07/04 12:13:36;;;;;;;2.10;1.13;;;;;;;31.96;33.45;100472.91;5071659;28;20036;-62
2022/07/04 12:16:11;;;;;;;2.80;1.20;;;;;;;31.44;31.85;100471.53;5071421;28;20574;-63
2022/07/04 12:18:37;;;;;;;3.65;1.58;;;;;;;31.13;31.54;100463.06;5071183;28;20060;-62
2022/07/04 12:21:17;;;;;;;2.87;1.27;;;;;;;30.85;32.34;100459.47;5071511;28;20517;-62
2022/07/04 12:23:53;;;;;;;1.42;1.10;;;;;;;31.08;34.20;100459.28;5071418;28;20551;-63
2022/07/04 12:26:18;;;;;;;3.45;1.92;;;;;;;30.78;33.32;100459.88;5071497;28;20036;-63
2022/07/04 12:28:44;;;;;;;2.10;1.33;;;;;;;31.02;32.94;100466.00;5071162;28;20040;-63
2022/07/04 12:31:10;;;;;;;2.20;1.35;;;;;;;31.99;33.64;100461.25;5071364;28;20068;-63
2022/07/04 12:33:35;;;;;;;1.80;1.02;;;;;;;31.73;32.20;100457.41;5071487;28;20076;-63
2022/07/04 12:36:03;;;;;;;4.07;1.13;;;;;;;32.15;31.45;100447.94;5071353;28;20119;-63
2022/07/04 12:38:28;;;;;;;1.98;1.30;;;;;;;31.85;32.70;100443.97;5071009;28;20115;-62
2022/07/04 12:40:54;;;;;;;6.37;2.03;;;;;;;31.92;32.42;100436.06;5071390;28;20124;-63
2022/07/04 12:43:20;;;;;;;1.83;1.03;;;;;;;32.31;32.56;100429.88;5073397;28;20040;-63
2022/07/04 12:45:47;;;;;;;4.45;1.20;;;;;;;32.71;31.69;100426.41;5075199;28;20037;-63
2022/07/04 12:48:18;;;;;;;1.55;0.82;;;;;;;32.21;30.32;100418.31;5073902;28;20047;-62
2022/07/04 12:50:43;;;;;;;2.38;1.08;;;;;;;32.09;31.00;100414.19;5065270;28;20491;-63
2022/07/04 12:53:09;;;;;;;2.23;0.90;;;;;;;32.33;31.99;100413.88;5063663;28;20039;-62
2022/07/04 12:55:38;;;;;;;2.73;1.10;;;;;;;32.18;29.80;100408.72;5065206;28;20497;-62
2022/07/04 12:58:04;;;;;;;1.23;1.00;;;;;;;32.17;31.21;100404.34;5065341;28;20029;-62
2022/07/04 13:00:29;;;;;;;1.90;1.20;;;;;;;32.54;29.24;100405.91;5063212;28;20083;-63
2022/07/04 13:02:55;;;;;;;1.50;1.00;;;;;;;32.45;30.38;100402.28;5066263;28;20283;-63
2022/07/04 13:05:20;;;;;;;2.23;1.10;;;;;;;32.93;30.73;100401.59;5064205;28;20041;-63
2022/07/04 13:07:46;;;;;;;2.87;1.00;;;;;;;33.12;30.13;100396.59;5057551;28;20052;-63
2022/07/04 13:10:12;;;;;;;1.53;1.10;;;;;;;33.07;28.91;100395.94;5054534;28;20060;-63
2022/07/04 13:12:37;;;;;;;3.17;1.13;;;;;;;33.05;29.00;100390.72;5036812;28;20041;-63
2022/07/04 13:15:05;;;;;;;2.23;1.20;;;;;;;33.35;29.99;100390.97;5054659;28;20057;-63
2022/07/04 13:17:31;;;;;;;1.27;0.93;;;;;;;32.90;30.49;100391.97;5054610;28;20033;-63
2022/07/04 13:19:56;;;;;;;0.70;0.70;;;;;;;32.38;29.74;100390.91;5054472;28;20406;-63
2022/07/04 13:22:23;;;;;;;1.40;0.93;;;;;;;32.33;30.77;100389.06;5054811;28;20044;-62
2022/07/04 13:24:51;;;;;;;1.40;0.98;;;;;;;31.91;31.99;100392.34;5054529;28;20355;-63
2022/07/04 13:27:18;;;;;;;3.38;1.10;;;;;;;31.27;33.48;100392.38;5054290;28;20439;-63
2022/07/04 13:29:43;;;;;;;;;;;;;;;30.36;31.56;100383.91;5054585;28;20067;-63
2022/07/04 13:32:09;;;;;;;2.30;0.93;;;;;;;30.74;33.60;100379.13;5054339;28;19964;-63
2022/07/04 13:34:36;;;;;;;1.00;0.90;;;;;;;30.37;34.36;100386.34;5054340;28;20049;-63
2022/07/04 13:37:02;;;;;;;2.17;1.10;;;;;;;29.91;32.83;100381.59;5054259;28;20029;-63
2022/07/04 13:39:27;;;;;;;1.58;1.20;;;;;;;30.02;34.11;100385.00;5054075;28;20044;-62
2022/07/04 13:41:53;;;;;;;1.85;1.05;;;;;;;29.90;35.07;100379.97;5054115;28;20033;-63
2022/07/04 13:44:18;;;;;;;2.55;1.20;;;;;;;29.64;34.76;100379.53;5054179;28;20037;-63
2022/07/04 13:46:44;;;;;;;1.30;1.08;;;;;;;29.55;35.29;100375.84;5036364;28;20091;-62
2022/07/04 13:49:11;;;;;;;1.42;1.00;;;;;;;29.46;36.25;100374.81;5053820;28;20049;-62
2022/07/04 13:51:37;;;;;;;3.33;1.00;;;;;;;29.15;33.22;100371.69;5054050;28;20497;-62
2022/07/04 13:54:02;;;;;;;1.85;1.10;;;;;;;28.99;33.91;100368.31;5053503;28;20048;-62
2022/07/04 13:56:28;;;;;;;2.25;1.30;;;;;;;28.80;35.30;100367.41;5053829;28;20033;-63
2022/07/04 13:58:54;;;;;;;2.35;1.05;;;;;;;28.78;34.73;100361.41;5053387;28;20040;-61
2022/07/04 14:01:20;;;;;;;2.38;1.30;;;;;;;28.61;35.83;100356.38;5053674;28;20029;-62
2022/07/04 14:03:46;;;;;;;1.10;1.00;;;;;;;28.51;37.47;100351.03;5053726;28;20477;-62
2022/07/04 14:06:12;;;;;;;2.80;1.27;;;;;;;28.12;36.22;100355.44;5035829;28;20551;-62
2022/07/04 14:08:38;;;;;;;3.88;1.38;;;;;;;28.13;37.25;100351.59;5053511;28;20045;-61
2022/07/04 14:11:04;;;;;;;2.08;1.13;;;;;;;28.22;37.74;100351.78;5053893;28;20033;-62
2022/07/04 14:13:29;;;;;;;1.75;1.23;;;;;;;28.21;38.86;100357.56;5035882;28;20462;-62
2022/07/04 14:15:55;;;;;;;2.17;1.10;;;;;;;28.49;36.98;100356.75;5053488;28;20040;-62
2022/07/04 14:18:20;;;;;;;2.38;1.35;;;;;;;28.35;36.75;100348.41;5053243;28;20069;-62
2022/07/04 14:20:46;;;;;;;2.13;1.38;;;;;;;28.25;36.33;100351.22;5053194;28;20510;-63
2022/07/04 14:23:12;;;;;;;2.42;1.30;;;;;;;28.46;39.15;100359.28;5053583;28;20029;-62
2022/07/04 14:25:38;;;;;;;2.25;1.42;;;;;;;28.36;37.40;100361.03;5053590;28;20423;-63
2022/07/04 14:28:04;;;;;;;1.58;1.10;;;;;;;28.15;37.83;100351.31;5053319;28;20071;-60
2022/07/04 14:30:29;;;;;;;1.77;1.30;;;;;;;28.19;39.08;100357.84;5053113;28;20040;-62
2022/07/04 14:32:55;;;;;;;1.70;1.10;;;;;;;28.40;37.91;100358.50;5053249;28;20505;-62
2022/07/04 14:35:20;;;;;;;1.45;1.20;;;;;;;28.37;37.11;100356.38;5053001;28;20479;-61
2022/07/04 14:37:46;;;;;;;1.90;1.30;;;;;;;28.30;36.87;100358.56;5053161;28;20510;-62
2022/07/04 14:40:12;;;;;;;1.75;1.45;;;;;;;28.19;35.48;100346.91;5052716;28;20064;-62
2022/07/04 14:42:37;;;;;;;1.35;1.25;;;;;;;28.16;36.60;100341.16;5053029;28;20056;-62
2022/07/04 14:45:03;;;;;;;3.00;1.25;;;;;;;28.35;37.68;100351.16;5053035;28;20490;-62
2022/07/04 14:47:31;;;;;;;2.47;1.20;;;;;;;28.26;36.03;100347.38;5052747;28;20569;-61
2022/07/04 14:49:57;;;;;;;2.53;1.27;;;;;;;28.18;36.81;100347.19;5052973;28;20107;-61
2022/07/04 14:52:22;;;;;;;1.63;1.17;;;;;;;27.93;37.21;100331.81;5052687;28;20514;-62
2022/07/04 14:54:48;;;;;;;2.15;1.10;;;;;;;27.99;35.95;100339.69;5052625;28;20509;-62
2022/07/04 14:57:14;;;;;;;1.42;1.20;;;;;;;27.98;37.62;100339.97;5052481;28;20049;-62
2022/07/04 14:59:39;;;;;;;1.30;1.20;;;;;;;28.05;38.04;100333.06;5052604;28;20083;-62
2022/07/04 15:02:05;;;;;;;3.42;1.38;;;;;;;28.07;37.28;100336.31;5052740;28;20032;-61
2022/07/04 15:04:30;;;;;;;2.75;1.40;;;;;;;28.00;35.78;100327.63;5052157;28;20123;-62
2022/07/04 15:06:56;;;;;;;2.13;1.23;;;;;;;27.92;36.58;100324.69;5051941;28;20040;-62
2022/07/04 15:09:22;;;;;;;1.33;1.20;;;;;;;27.82;36.94;100323.66;5052046;28;20448;-62
2022/07/04 15:11:48;;;;;;;1.85;1.60;;;;;;;27.91;38.50;100323.03;5052194;28;20025;-62
2022/07/04 15:14:14;;;;;;;2.30;1.48;;;;;;;27.86;37.50;100332.13;5052488;28;20033;-62
2022/07/04 15:16:40;;;;;;;1.70;1.30;;;;;;;27.81;36.91;100324.78;5052399;28;20534;-61
2022/07/04 15:19:05;;;;;;;2.03;1.20;;;;;;;27.80;38.11;100325.88;5034436;28;20075;-62
2022/07/04 15:24:15;;;;;;;2.40;1.33;;;;;;;28.00;36.56;100305.72;5052383;28;20571;-56
2022/07/04 15:26:49;;;;;;;1.80;1.30;;;;;;;27.92;37.01;100308.28;5052145;28;20036;-57
2022/07/04 15:29:16;;;;;;;3.20;1.70;;;;;;;28.01;37.30;100312.03;5051836;28;20037;-61
2022/07/04 15:31:44;;;;;;;2.67;1.13;;;;;;;28.16;37.31;100300.09;5052124;28;20486;-60
2022/07/04 15:34:10;;;;;;;1.27;1.10;;;;;;;28.15;38.33;100306.69;5052105;28;20394;-58
2022/07/04 15:36:36;;;;;;;2.22;1.20;;;;;;;28.11;38.05;100309.19;5051958;28;20056;-60
2022/07/04 15:39:07;;;;;;;1.80;1.40;;;;;;;28.16;37.69;100300.91;5051706;28;20087;-60
2022/07/04 15:41:34;;;;;;;2.08;1.25;;;;;;;28.22;37.94;100302.50;5051939;28;20060;-60
2022/07/04 15:44:00;;;;;;;3.85;1.77;;;;;;;27.90;37.62;100305.00;5052009;28;20334;-58
2022/07/04 15:46:25;;;;;;;3.85;1.70;;;;;;;28.11;37.77;100298.25;5051888;28;20138;-60
2022/07/04 15:48:50;;;;;;;2.97;1.50;;;;;;;28.13;37.99;100299.59;5051584;28;20424;-56
2022/07/04 15:51:16;;;;;;;2.15;1.30;;;;;;;27.99;37.08;100295.06;5033889;28;20045;-60
2022/07/04 15:53:42;;;;;;;2.95;1.23;;;;;;;28.02;36.37;100303.50;5051679;28;20059;-58
2022/07/04 15:56:07;;;;;;;3.33;1.50;;;;;;;27.94;37.32;100300.59;5051756;28;20033;-59
2022/07/04 15:58:33;;;;;;;4.00;1.30;;;;;;;27.96;36.57;100299.19;5051401;28;20048;-59
2022/07/04 16:00:59;;;;;;;2.08;1.50;;;;;;;27.87;36.54;100300.91;5051647;28;20033;-58
2022/07/04 16:03:24;;;;;;;1.10;1.00;;;;;;;27.99;37.31;100303.28;5051542;28;20536;-61
2022/07/04 16:05:50;;;;;;;1.95;1.65;;;;;;;27.95;37.19;100297.56;5051420;28;20087;-59
2022/07/04 16:08:16;;;;;;;2.13;1.50;;;;;;;27.86;36.21;100288.34;5051374;28;20473;-60